Time;durP1;ratioP1;P1;durP2;ratioP2;P2;SDS_P1;SDS_P2;PMS_P1;PMS_P2;Temp;Humidity;BMP_temperature;BMP_pressure;BME280_temperature;BME280_humidity;BME280_pressure;Samples;Min_cycle;Max_cycle;Signal;HPM_P1;HPM_P2
2023/09/21 00:00:08;;;;;;;0.30;0.30;;;;;;;;;;4942645;28;20521;-63
2023/09/21 00:02:38;;;;;;;0.30;0.30;;;;;;;;;;4941300;29;20048;-60
2023/09/21 00:05:03;;;;;;;0.30;0.30;;;;;;;;;;4932648;28;20042;-61
2023/09/21 00:07:29;;;;;;;0.30;0.30;;;;;;;;;;4942799;28;20120;-60
2023/09/21 00:09:54;;;;;;;0.30;0.30;;;;;;;;;;4937377;28;20488;-60
2023/09/21 00:12:19;;;;;;;0.30;0.30;;;;;;;;;;4938405;28;20035;-63
2023/09/21 00:14:45;;;;;;;0.30;0.30;;;;;;;;;;4941259;28;20031;-59
2023/09/21 00:17:11;;;;;;;0.40;0.40;;;;;;;;;;4938182;28;20122;-61
2023/09/21 00:19:36;;;;;;;0.30;0.30;;;;;;;;;;4940068;28;20035;-59
2023/09/21 00:22:03;;;;;;;0.30;0.30;;;;;;;;;;4936288;28;20114;-64
2023/09/21 00:24:30;;;;;;;0.30;0.30;;;;;;;;;;4939646;28;20969;-60
2023/09/21 00:26:57;;;;;;;0.40;0.40;;;;;;;;;;4940082;28;20039;-63
2023/09/21 00:29:22;;;;;;;0.30;0.30;;;;;;;;;;4942144;28;20547;-60
2023/09/21 00:31:48;;;;;;;0.30;0.30;;;;;;;;;;4943906;28;20035;-61
2023/09/21 00:34:13;;;;;;;0.30;0.30;;;;;;;;;;4943758;28;20042;-62
2023/09/21 00:36:42;;;;;;;0.40;0.40;;;;;;;;;;4937550;28;20031;-60
2023/09/21 00:39:09;;;;;;;0.30;0.30;;;;;;;;;;4938115;28;20027;-61
2023/09/21 00:41:34;;;;;;;0.40;0.40;;;;;;;;;;4934170;28;20429;-61
2023/09/21 00:44:05;;;;;;;0.40;0.40;;;;;;;;;;4940337;28;20722;-62
2023/09/21 00:46:34;;;;;;;0.30;0.30;;;;;;;;;;4942199;28;20553;-62
2023/09/21 00:49:00;;;;;;;0.30;0.30;;;;;;;;;;4942455;28;20038;-60
2023/09/21 00:51:26;;;;;;;0.30;0.30;;;;;;;;;;4936691;28;20039;-60
2023/09/21 00:53:51;;;;;;;0.40;0.40;;;;;;;;;;4939114;28;20074;-62
2023/09/21 00:56:18;;;;;;;0.30;0.30;;;;;;;;;;4941677;28;20470;-61
2023/09/21 00:58:45;;;;;;;0.40;0.40;;;;;;;;;;4937449;28;20027;-60
2023/09/21 01:01:27;;;;;;;;;;;;;;;;;;4936833;28;20035;-60
2023/09/21 01:03:59;;;;;;;0.30;0.30;;;;;;;;;;4943862;28;19962;-64
2023/09/21 01:06:24;;;;;;;0.40;0.40;;;;;;;;;;4941746;28;20078;-64
2023/09/21 01:08:50;;;;;;;0.30;0.30;;;;;;;;;;4927601;29;20016;-64
2023/09/21 01:11:16;;;;;;;0.40;0.40;;;;;;;;;;4931012;29;20090;-64
2023/09/21 01:13:41;;;;;;;0.30;0.30;;;;;;;;;;4928792;29;20106;-63
2023/09/21 01:16:11;;;;;;;0.40;0.40;;;;;;;;;;4931690;29;20049;-64
2023/09/21 01:18:40;;;;;;;0.40;0.40;;;;;;;;;;4929410;29;20115;-64
2023/09/21 01:21:08;;;;;;;0.40;0.40;;;;;;;;;;4943860;28;20027;-64
2023/09/21 01:23:45;;;;;;;0.40;0.40;;;;;;;;;;4927327;29;20035;-64
2023/09/21 01:26:12;;;;;;;0.30;0.30;;;;;;;;;;4945614;28;20291;-65
2023/09/21 01:28:37;;;;;;;0.30;0.30;;;;;;;;;;4943132;28;20024;-65
2023/09/21 01:31:03;;;;;;;0.40;0.40;;;;;;;;;;4942486;28;20039;-64
2023/09/21 01:33:28;;;;;;;0.40;0.40;;;;;;;;;;4941505;28;20043;-63
2023/09/21 01:35:53;;;;;;;0.40;0.40;;;;;;;;;;4929311;29;20040;-63
2023/09/21 01:38:19;;;;;;;0.40;0.40;;;;;;;;;;4929061;29;20031;-65
2023/09/21 01:40:46;;;;;;;0.40;0.40;;;;;;;;;;4926833;28;20047;-63
2023/09/21 01:43:17;;;;;;;0.40;0.40;;;;;;;;;;4928772;29;20054;-62
2023/09/21 01:45:44;;;;;;;0.40;0.40;;;;;;;;;;4927509;29;20278;-63
2023/09/21 01:48:09;;;;;;;;;;;;;;;;;;4962829;28;20501;-65
2023/09/21 01:50:46;;;;;;;0.40;0.40;;;;;;;;;;4934870;29;20711;-65
2023/09/21 01:53:11;;;;;;;0.40;0.40;;;;;;;;;;4963334;28;20040;-64
2023/09/21 01:55:37;;;;;;;0.40;0.40;;;;;;;;;;4933478;29;20035;-65
2023/09/21 01:58:04;;;;;;;0.40;0.40;;;;;;;;;;4962612;28;20386;-64
2023/09/21 02:00:29;;;;;;;0.30;0.30;;;;;;;;;;4964414;28;20043;-64
2023/09/21 02:02:55;;;;;;;0.38;0.38;;;;;;;;;;4963886;28;20043;-63
2023/09/21 02:05:21;;;;;;;0.40;0.40;;;;;;;;;;4934855;29;20035;-64
2023/09/21 02:07:47;;;;;;;0.40;0.40;;;;;;;;;;4934778;28;20027;-63
2023/09/21 02:10:17;;;;;;;0.30;0.30;;;;;;;;;;4964712;28;20119;-64
2023/09/21 02:12:55;;;;;;;0.40;0.40;;;;;;;;;;4943403;28;20378;-63
2023/09/21 02:15:21;;;;;;;0.30;0.30;;;;;;;;;;4932328;29;20516;-64
2023/09/21 02:17:46;;;;;;;0.30;0.30;;;;;;;;;;4948861;28;20059;-66
2023/09/21 02:20:15;;;;;;;0.40;0.40;;;;;;;;;;4934912;29;20031;-64
2023/09/21 02:22:44;;;;;;;0.32;0.32;;;;;;;;;;4933476;29;20043;-65
2023/09/21 02:25:13;;;;;;;0.30;0.30;;;;;;;;;;4933931;29;20035;-64
2023/09/21 02:27:48;;;;;;;0.30;0.30;;;;;;;;;;4947313;28;20031;-65
2023/09/21 02:30:16;;;;;;;0.30;0.30;;;;;;;;;;4965121;28;20660;-63
2023/09/21 02:32:42;;;;;;;0.30;0.30;;;;;;;;;;4966520;28;20110;-64
2023/09/21 02:35:13;;;;;;;0.40;0.40;;;;;;;;;;4964819;28;20031;-63
2023/09/21 02:37:39;;;;;;;0.30;0.30;;;;;;;;;;4933036;29;20027;-64
2023/09/21 02:40:07;;;;;;;0.30;0.30;;;;;;;;;;4934203;29;20028;-64
2023/09/21 02:42:33;;;;;;;0.30;0.30;;;;;;;;;;4965723;28;20068;-64
2023/09/21 02:44:58;;;;;;;0.30;0.30;;;;;;;;;;4933859;28;20119;-62
2023/09/21 02:47:24;;;;;;;0.30;0.30;;;;;;;;;;4951061;28;20377;-63
2023/09/21 02:49:50;;;;;;;0.40;0.40;;;;;;;;;;4948743;28;20035;-64
2023/09/21 02:52:15;;;;;;;0.40;0.40;;;;;;;;;;4932001;29;20386;-64
2023/09/21 02:54:41;;;;;;;0.30;0.30;;;;;;;;;;4964129;28;20445;-65
2023/09/21 02:57:07;;;;;;;0.30;0.30;;;;;;;;;;4948039;28;20115;-67
2023/09/21 02:59:33;;;;;;;0.30;0.30;;;;;;;;;;4929965;29;20024;-65
2023/09/21 03:02:00;;;;;;;0.40;0.40;;;;;;;;;;4945819;28;20095;-64
2023/09/21 03:04:26;;;;;;;0.40;0.40;;;;;;;;;;4961066;28;20473;-64
2023/09/21 03:06:53;;;;;;;0.30;0.30;;;;;;;;;;4933157;29;20462;-64
2023/09/21 03:09:20;;;;;;;0.30;0.30;;;;;;;;;;4961626;28;20023;-64
2023/09/21 03:11:46;;;;;;;0.40;0.40;;;;;;;;;;4930885;29;20086;-65
2023/09/21 03:14:11;;;;;;;0.30;0.30;;;;;;;;;;4931686;29;20397;-64
2023/09/21 03:16:42;;;;;;;0.40;0.40;;;;;;;;;;4930339;29;20036;-65
2023/09/21 03:19:08;;;;;;;0.30;0.30;;;;;;;;;;4959898;28;20366;-64
2023/09/21 03:21:34;;;;;;;0.30;0.30;;;;;;;;;;4944464;28;20380;-66
2023/09/21 03:24:00;;;;;;;0.30;0.30;;;;;;;;;;4928425;29;20040;-64
2023/09/21 03:26:25;;;;;;;0.30;0.30;;;;;;;;;;4929152;29;20020;-64
2023/09/21 03:28:51;;;;;;;0.30;0.30;;;;;;;;;;4961223;28;20091;-64
2023/09/21 03:31:18;;;;;;;0.30;0.30;;;;;;;;;;4930699;29;20680;-64
2023/09/21 03:33:46;;;;;;;0.30;0.30;;;;;;;;;;4959541;28;20036;-65
2023/09/21 03:36:13;;;;;;;0.30;0.30;;;;;;;;;;4946025;28;20039;-63
2023/09/21 03:38:39;;;;;;;0.30;0.30;;;;;;;;;;4943491;28;20027;-65
2023/09/21 03:41:05;;;;;;;0.30;0.30;;;;;;;;;;4930009;29;20054;-63
2023/09/21 03:43:30;;;;;;;0.30;0.30;;;;;;;;;;4960050;28;20046;-65
2023/09/21 03:45:56;;;;;;;0.30;0.30;;;;;;;;;;4958801;28;20202;-64
2023/09/21 03:48:21;;;;;;;0.30;0.30;;;;;;;;;;4929609;29;20036;-66
2023/09/21 03:50:49;;;;;;;0.30;0.30;;;;;;;;;;4929548;29;20035;-64
2023/09/21 03:53:14;;;;;;;0.30;0.30;;;;;;;;;;4927791;29;20040;-64
2023/09/21 03:55:40;;;;;;;0.30;0.30;;;;;;;;;;4943672;28;20042;-64
2023/09/21 03:58:07;;;;;;;0.30;0.30;;;;;;;;;;4941400;28;20034;-63
2023/09/21 04:03:03;;;;;;;0.30;0.30;;;;;;;;;;4930534;29;20564;-63
2023/09/21 04:05:32;;;;;;;0.30;0.30;;;;;;;;;;4942165;28;20135;-65
2023/09/21 04:07:58;;;;;;;0.30;0.30;;;;;;;;;;4931855;29;20028;-65
2023/09/21 04:10:24;;;;;;;0.30;0.30;;;;;;;;;;4947096;28;20031;-65
2023/09/21 04:12:55;;;;;;;0.30;0.30;;;;;;;;;;4927913;29;20051;-64
2023/09/21 04:15:21;;;;;;;0.30;0.30;;;;;;;;;;4958506;28;20457;-67
2023/09/21 04:17:47;;;;;;;0.30;0.30;;;;;;;;;;4944180;28;20024;-64
2023/09/21 04:20:15;;;;;;;0.30;0.30;;;;;;;;;;4944533;28;20484;-63
2023/09/21 04:22:41;;;;;;;0.38;0.38;;;;;;;;;;4943375;28;20027;-66
2023/09/21 04:25:08;;;;;;;0.30;0.30;;;;;;;;;;4927798;29;20072;-63
2023/09/21 04:27:35;;;;;;;0.20;0.20;;;;;;;;;;4945092;28;20032;-64
2023/09/21 04:30:01;;;;;;;0.30;0.30;;;;;;;;;;4958335;28;20069;-65
2023/09/21 04:32:27;;;;;;;0.30;0.30;;;;;;;;;;4961478;28;20055;-64
2023/09/21 04:34:52;;;;;;;0.30;0.30;;;;;;;;;;4943737;28;20043;-64
2023/09/21 04:37:18;;;;;;;0.22;0.22;;;;;;;;;;4929463;29;20462;-65
2023/09/21 04:39:43;;;;;;;0.30;0.30;;;;;;;;;;4960213;28;20376;-64
2023/09/21 04:42:13;;;;;;;0.25;0.25;;;;;;;;;;4941728;28;20458;-63
2023/09/21 04:44:40;;;;;;;0.30;0.30;;;;;;;;;;4959345;28;20486;-63
2023/09/21 04:47:05;;;;;;;0.30;0.30;;;;;;;;;;4942977;28;20086;-65
2023/09/21 04:49:31;;;;;;;0.20;0.20;;;;;;;;;;4929545;29;20054;-66
2023/09/21 04:51:56;;;;;;;0.30;0.30;;;;;;;;;;4960887;28;20040;-65
2023/09/21 04:54:22;;;;;;;0.30;0.30;;;;;;;;;;4944999;28;20039;-66
2023/09/21 04:56:51;;;;;;;0.30;0.30;;;;;;;;;;4943422;28;20359;-64
2023/09/21 04:59:20;;;;;;;0.30;0.30;;;;;;;;;;4941766;28;20055;-65
2023/09/21 05:01:45;;;;;;;0.30;0.30;;;;;;;;;;4959325;28;20068;-65
2023/09/21 05:04:12;;;;;;;0.30;0.30;;;;;;;;;;4956896;28;20154;-64
2023/09/21 05:06:37;;;;;;;0.30;0.30;;;;;;;;;;4926186;29;20054;-65
2023/09/21 05:09:03;;;;;;;0.30;0.30;;;;;;;;;;4955331;28;21801;-66
2023/09/21 05:11:28;;;;;;;0.30;0.30;;;;;;;;;;4940099;28;20031;-66
2023/09/21 05:13:53;;;;;;;0.30;0.30;;;;;;;;;;4960622;28;20095;-66
2023/09/21 05:16:19;;;;;;;0.30;0.30;;;;;;;;;;4927576;29;20090;-65
2023/09/21 05:18:44;;;;;;;0.30;0.30;;;;;;;;;;4927533;29;20518;-65
2023/09/21 05:21:11;;;;;;;0.30;0.30;;;;;;;;;;4927801;29;20039;-64
2023/09/21 05:23:37;;;;;;;0.30;0.30;;;;;;;;;;4943340;28;20046;-65
2023/09/21 05:26:02;;;;;;;0.30;0.30;;;;;;;;;;4930120;29;20036;-64
2023/09/21 05:28:28;;;;;;;0.30;0.30;;;;;;;;;;4940918;28;20089;-64
2023/09/21 05:30:54;;;;;;;0.30;0.30;;;;;;;;;;4957121;28;20047;-64
2023/09/21 05:33:19;;;;;;;0.30;0.30;;;;;;;;;;4925485;29;20078;-63
2023/09/21 05:35:53;;;;;;;0.25;0.25;;;;;;;;;;4929058;29;20051;-64
2023/09/21 05:38:19;;;;;;;0.30;0.30;;;;;;;;;;4931168;29;20491;-64
2023/09/21 05:40:44;;;;;;;0.30;0.30;;;;;;;;;;4924716;28;20082;-65
2023/09/21 05:43:10;;;;;;;0.28;0.28;;;;;;;;;;4925548;29;20083;-66
2023/09/21 05:45:35;;;;;;;0.30;0.30;;;;;;;;;;4924223;29;20032;-65
2023/09/21 05:48:00;;;;;;;0.30;0.30;;;;;;;;;;4925208;29;20047;-65
2023/09/21 05:50:26;;;;;;;0.22;0.22;;;;;;;;;;4958165;28;20063;-63
2023/09/21 05:52:53;;;;;;;0.30;0.30;;;;;;;;;;4929316;29;20064;-63
2023/09/21 05:55:18;;;;;;;0.30;0.30;;;;;;;;;;4927914;29;20088;-64
2023/09/21 05:57:47;;;;;;;0.20;0.20;;;;;;;;;;4928665;29;20019;-63
2023/09/21 06:00:13;;;;;;;0.30;0.30;;;;;;;;;;4928577;29;20538;-64
2023/09/21 06:02:38;;;;;;;0.20;0.20;;;;;;;;;;4930501;29;20134;-63
2023/09/21 06:05:04;;;;;;;0.30;0.30;;;;;;;;;;4928006;29;20437;-63
2023/09/21 06:07:31;;;;;;;0.30;0.30;;;;;;;;;;4928490;29;20044;-63
2023/09/21 06:09:57;;;;;;;0.30;0.30;;;;;;;;;;4929675;29;20043;-65
2023/09/21 06:12:25;;;;;;;0.20;0.20;;;;;;;;;;4929367;29;20282;-65
2023/09/21 06:14:52;;;;;;;0.20;0.20;;;;;;;;;;4927763;29;20035;-65
2023/09/21 06:17:17;;;;;;;0.20;0.20;;;;;;;;;;4926828;29;20130;-64
2023/09/21 06:19:44;;;;;;;0.20;0.20;;;;;;;;;;4929193;28;20418;-63
2023/09/21 06:22:09;;;;;;;0.20;0.20;;;;;;;;;;4929603;29;20041;-63
2023/09/21 06:24:34;;;;;;;0.20;0.20;;;;;;;;;;4928289;29;20032;-63
2023/09/21 06:27:00;;;;;;;0.25;0.25;;;;;;;;;;4928812;29;20580;-63
2023/09/21 06:29:25;;;;;;;0.20;0.20;;;;;;;;;;4927953;29;20032;-64
2023/09/21 06:31:55;;;;;;;0.20;0.20;;;;;;;;;;4929177;29;20040;-63
2023/09/21 06:34:24;;;;;;;0.20;0.20;;;;;;;;;;4931121;29;20225;-64
2023/09/21 06:36:50;;;;;;;0.20;0.20;;;;;;;;;;4932336;29;20042;-64
2023/09/21 06:39:16;;;;;;;0.20;0.20;;;;;;;;;;4930881;28;20046;-64
2023/09/21 06:41:44;;;;;;;0.30;0.30;;;;;;;;;;4932537;29;20876;-64
2023/09/21 06:44:09;;;;;;;0.20;0.20;;;;;;;;;;4960748;28;20107;-64
2023/09/21 06:46:34;;;;;;;0.20;0.20;;;;;;;;;;4931162;29;20540;-63
2023/09/21 06:49:02;;;;;;;0.20;0.20;;;;;;;;;;4934370;29;20086;-63
2023/09/21 06:51:28;;;;;;;0.20;0.20;;;;;;;;;;4930631;29;20216;-64
2023/09/21 06:53:53;;;;;;;0.20;0.20;;;;;;;;;;4931333;29;20154;-64
2023/09/21 06:56:21;;;;;;;0.20;0.20;;;;;;;;;;4932997;29;20046;-64
2023/09/21 06:58:46;;;;;;;0.20;0.20;;;;;;;;;;4930877;29;20031;-64
2023/09/21 07:01:12;;;;;;;0.20;0.20;;;;;;;;;;4945642;28;20040;-64
2023/09/21 07:03:37;;;;;;;0.20;0.20;;;;;;;;;;4932337;29;20039;-66
2023/09/21 07:06:02;;;;;;;0.20;0.20;;;;;;;;;;4932411;29;20051;-64
2023/09/21 07:08:28;;;;;;;0.20;0.20;;;;;;;;;;4927638;28;20032;-65
2023/09/21 07:10:53;;;;;;;0.20;0.20;;;;;;;;;;4925134;28;20335;-64
2023/09/21 07:13:20;;;;;;;0.20;0.20;;;;;;;;;;4930190;29;20036;-63
2023/09/21 07:15:45;;;;;;;0.25;0.25;;;;;;;;;;4930252;29;20111;-65
2023/09/21 07:18:12;;;;;;;0.20;0.20;;;;;;;;;;4928828;29;20046;-64
2023/09/21 07:20:37;;;;;;;0.20;0.20;;;;;;;;;;4931466;29;20023;-64
2023/09/21 07:23:03;;;;;;;0.20;0.20;;;;;;;;;;4930391;29;20051;-63
2023/09/21 07:25:28;;;;;;;0.20;0.20;;;;;;;;;;4931875;29;20045;-64
2023/09/21 07:27:54;;;;;;;0.20;0.20;;;;;;;;;;4930787;29;20517;-66
2023/09/21 07:30:23;;;;;;;0.20;0.20;;;;;;;;;;4930557;29;20058;-64
2023/09/21 07:32:49;;;;;;;0.10;0.10;;;;;;;;;;4961125;28;20038;-65
2023/09/21 07:35:14;;;;;;;0.20;0.20;;;;;;;;;;4930459;29;20032;-63
2023/09/21 07:37:45;;;;;;;0.10;0.10;;;;;;;;;;4930323;29;20496;-65
2023/09/21 07:40:13;;;;;;;0.20;0.20;;;;;;;;;;4930219;29;20069;-64
2023/09/21 07:42:41;;;;;;;;;;;;;;;;;;4930388;29;20031;-65
2023/09/21 07:45:08;;;;;;;0.20;0.20;;;;;;;;;;4929287;29;19917;-64
2023/09/21 07:47:33;;;;;;;0.20;0.20;;;;;;;;;;4931157;29;20537;-63
2023/09/21 07:49:58;;;;;;;0.20;0.20;;;;;;;;;;4945740;28;20036;-63
2023/09/21 07:52:24;;;;;;;0.20;0.20;;;;;;;;;;4929979;29;20028;-64
2023/09/21 07:54:50;;;;;;;0.20;0.20;;;;;;;;;;4961551;28;20142;-64
2023/09/21 07:57:16;;;;;;;0.10;0.10;;;;;;;;;;4931683;29;20686;-64
2023/09/21 07:59:42;;;;;;;0.20;0.20;;;;;;;;;;4928955;29;20078;-65
2023/09/21 08:02:07;;;;;;;0.20;0.20;;;;;;;;;;4928080;29;20051;-65
2023/09/21 08:04:33;;;;;;;0.20;0.20;;;;;;;;;;4929681;29;20275;-63
2023/09/21 08:06:59;;;;;;;0.20;0.20;;;;;;;;;;4933954;29;20031;-65
2023/09/21 08:09:25;;;;;;;0.20;0.20;;;;;;;;;;4931874;29;20426;-65
2023/09/21 08:11:50;;;;;;;0.20;0.20;;;;;;;;;;4932419;29;20031;-65
2023/09/21 08:14:15;;;;;;;0.10;0.10;;;;;;;;;;4927716;29;20063;-64
2023/09/21 08:16:41;;;;;;;0.20;0.20;;;;;;;;;;4929133;29;20425;-65
2023/09/21 08:19:07;;;;;;;0.10;0.10;;;;;;;;;;4928415;29;20381;-64
2023/09/21 08:21:32;;;;;;;0.10;0.10;;;;;;;;;;4926180;29;20028;-64
2023/09/21 08:23:58;;;;;;;0.10;0.10;;;;;;;;;;4928173;29;20024;-66
2023/09/21 08:26:24;;;;;;;0.10;0.10;;;;;;;;;;4944572;28;20036;-64
2023/09/21 08:28:49;;;;;;;0.10;0.10;;;;;;;;;;4928231;29;20474;-65
2023/09/21 08:31:14;;;;;;;0.10;0.10;;;;;;;;;;4927455;29;20046;-64
2023/09/21 08:33:39;;;;;;;0.10;0.10;;;;;;;;;;4931150;29;20066;-64
2023/09/21 08:36:05;;;;;;;0.10;0.10;;;;;;;;;;4928812;29;20106;-64
2023/09/21 08:38:30;;;;;;;0.10;0.10;;;;;;;;;;4928627;29;20721;-65
2023/09/21 08:40:56;;;;;;;0.10;0.10;;;;;;;;;;4955938;28;20104;-64
2023/09/21 08:43:24;;;;;;;0.10;0.10;;;;;;;;;;4927856;29;20398;-64
2023/09/21 08:45:50;;;;;;;0.10;0.10;;;;;;;;;;4928363;29;20128;-64
2023/09/21 08:48:18;;;;;;;0.10;0.10;;;;;;;;;;4930251;29;20122;-64
2023/09/21 08:50:44;;;;;;;0.10;0.10;;;;;;;;;;4930094;29;20023;-64
2023/09/21 08:53:12;;;;;;;0.10;0.10;;;;;;;;;;4926924;29;20047;-63
2023/09/21 08:55:38;;;;;;;0.10;0.10;;;;;;;;;;4944209;28;20086;-64
2023/09/21 08:58:05;;;;;;;0.10;0.10;;;;;;;;;;4927498;29;20474;-64
2023/09/21 09:00:31;;;;;;;0.10;0.10;;;;;;;;;;4929890;29;20082;-65
2023/09/21 09:02:57;;;;;;;0.10;0.10;;;;;;;;;;4929311;29;20039;-64
2023/09/21 09:05:24;;;;;;;0.10;0.10;;;;;;;;;;4927634;29;20126;-64
2023/09/21 09:07:49;;;;;;;0.10;0.10;;;;;;;;;;4928216;29;20031;-64
2023/09/21 09:10:15;;;;;;;0.07;0.07;;;;;;;;;;4927160;29;20031;-66
2023/09/21 09:12:41;;;;;;;0.00;0.00;;;;;;;;;;4929235;29;20032;-66
2023/09/21 09:15:08;;;;;;;0.10;0.10;;;;;;;;;;4928120;29;20122;-64
2023/09/21 09:17:34;;;;;;;0.00;0.00;;;;;;;;;;4930223;29;20037;-64
2023/09/21 09:20:02;;;;;;;0.10;0.10;;;;;;;;;;4928099;29;20115;-63
2023/09/21 09:22:34;;;;;;;0.00;0.00;;;;;;;;;;4932525;29;20081;-64
2023/09/21 09:25:04;;;;;;;0.00;0.00;;;;;;;;;;4928108;29;20042;-63
2023/09/21 09:27:30;;;;;;;0.00;0.00;;;;;;;;;;4927862;29;20039;-64
2023/09/21 09:29:56;;;;;;;0.10;0.10;;;;;;;;;;4930362;29;20031;-64
2023/09/21 09:32:22;;;;;;;0.10;0.10;;;;;;;;;;4927168;29;20035;-64
2023/09/21 09:34:47;;;;;;;0.00;0.00;;;;;;;;;;4929672;29;20044;-66
2023/09/21 09:37:16;;;;;;;0.00;0.00;;;;;;;;;;4926882;29;20024;-66
2023/09/21 09:39:42;;;;;;;0.00;0.00;;;;;;;;;;4927492;29;20031;-63
2023/09/21 09:42:09;;;;;;;0.00;0.00;;;;;;;;;;4928324;29;20024;-63
2023/09/21 09:44:39;;;;;;;0.00;0.00;;;;;;;;;;4928592;29;20032;-64
2023/09/21 09:47:06;;;;;;;0.00;0.00;;;;;;;;;;4926734;29;20159;-65
2023/09/21 09:49:37;;;;;;;0.00;0.00;;;;;;;;;;4927074;29;20046;-64
2023/09/21 09:52:06;;;;;;;0.10;0.10;;;;;;;;;;4925420;29;20051;-65
2023/09/21 09:54:31;;;;;;;0.00;0.00;;;;;;;;;;4928427;29;20545;-65
2023/09/21 09:56:57;;;;;;;0.10;0.10;;;;;;;;;;4958098;28;20032;-63
2023/09/21 09:59:23;;;;;;;0.00;0.00;;;;;;;;;;4923950;28;20042;-65
2023/09/21 10:01:49;;;;;;;0.00;0.00;;;;;;;;;;4927660;29;20028;-64
2023/09/21 10:04:15;;;;;;;0.00;0.00;;;;;;;;;;4924433;28;20036;-67
2023/09/21 10:06:42;;;;;;;0.00;0.00;;;;;;;;;;4911181;28;20278;-63
2023/09/21 10:09:13;;;;;;;0.00;0.00;;;;;;;;;;4919266;29;20032;-67
2023/09/21 10:11:45;;;;;;;0.00;0.00;;;;;;;;;;4931145;28;20522;-64
2023/09/21 10:14:13;;;;;;;0.00;0.00;;;;;;;;;;4918247;29;20031;-65
2023/09/21 10:16:49;;;;;;;0.00;0.00;;;;;;;;;;4929725;29;20036;-67
2023/09/21 10:19:22;;;;;;;0.00;0.00;;;;;;;;;;4926214;28;20066;-65
2023/09/21 10:21:49;;;;;;;0.00;0.00;;;;;;;;;;4961906;28;20556;-65
2023/09/21 10:24:16;;;;;;;0.00;0.00;;;;;;;;;;4931045;29;20375;-64
2023/09/21 10:26:43;;;;;;;0.00;0.00;;;;;;;;;;4930455;29;20051;-65
2023/09/21 10:29:12;;;;;;;0.00;0.00;;;;;;;;;;4930552;29;20138;-64
2023/09/21 10:31:44;;;;;;;0.00;0.00;;;;;;;;;;4927212;29;20027;-65
2023/09/21 10:34:11;;;;;;;0.00;0.00;;;;;;;;;;4930616;29;20050;-64
2023/09/21 10:36:40;;;;;;;0.00;0.00;;;;;;;;;;4932231;29;20598;-66
2023/09/21 10:39:05;;;;;;;0.00;0.00;;;;;;;;;;4933432;29;20024;-64
2023/09/21 10:41:31;;;;;;;0.00;0.00;;;;;;;;;;4933126;28;20028;-64
2023/09/21 10:43:57;;;;;;;0.00;0.00;;;;;;;;;;4931782;29;20027;-63
2023/09/21 10:46:24;;;;;;;0.00;0.00;;;;;;;;;;4945759;28;20032;-64
2023/09/21 10:49:15;;;;;;;0.00;0.00;;;;;;;;;;4930437;29;20954;-63
2023/09/21 10:51:40;;;;;;;0.00;0.00;;;;;;;;;;4930348;28;20438;-63
2023/09/21 10:54:06;;;;;;;0.00;0.00;;;;;;;;;;4931753;29;20044;-64
2023/09/21 10:56:32;;;;;;;0.00;0.00;;;;;;;;;;4932298;29;20039;-64
2023/09/21 10:58:58;;;;;;;0.00;0.00;;;;;;;;;;4933113;29;20377;-63
2023/09/21 11:01:23;;;;;;;0.00;0.00;;;;;;;;;;4931971;29;20023;-64
2023/09/21 11:03:49;;;;;;;0.00;0.00;;;;;;;;;;4931420;29;20047;-64
2023/09/21 11:06:17;;;;;;;0.00;0.00;;;;;;;;;;4931963;29;20067;-64
2023/09/21 11:08:49;;;;;;;0.00;0.00;;;;;;;;;;4932116;28;20080;-63
2023/09/21 11:11:15;;;;;;;0.00;0.00;;;;;;;;;;4933391;29;20027;-64
2023/09/21 11:13:41;;;;;;;0.00;0.00;;;;;;;;;;4932500;29;20047;-63
2023/09/21 11:16:07;;;;;;;;;;;;;;;;;;4932743;29;20027;-64
2023/09/21 11:18:33;;;;;;;0.00;0.00;;;;;;;;;;4929711;29;19990;-64
2023/09/21 11:20:58;;;;;;;0.00;0.00;;;;;;;;;;4930774;29;20027;-63
2023/09/21 11:23:24;;;;;;;0.00;0.00;;;;;;;;;;4931080;29;20036;-64
2023/09/21 11:25:50;;;;;;;0.00;0.00;;;;;;;;;;4931620;29;20039;-65
2023/09/21 11:28:24;;;;;;;0.00;0.00;;;;;;;;;;4945740;28;20036;-65
2023/09/21 11:30:51;;;;;;;0.00;0.00;;;;;;;;;;4936271;29;20035;-64
2023/09/21 11:33:18;;;;;;;0.00;0.00;;;;;;;;;;4929867;29;20062;-64
2023/09/21 11:35:44;;;;;;;0.00;0.00;;;;;;;;;;4927876;29;20028;-64
2023/09/21 11:38:10;;;;;;;0.00;0.00;;;;;;;;;;4931909;29;20381;-65
2023/09/21 11:40:36;;;;;;;0.00;0.00;;;;;;;;;;4931640;29;20023;-65
2023/09/21 11:43:02;;;;;;;;;;;;;;;;;;4932196;29;20458;-63
2023/09/21 11:45:27;;;;;;;0.00;0.00;;;;;;;;;;4930911;29;19911;-62
2023/09/21 11:47:54;;;;;;;;;;;;;;;;;;4932032;29;20738;-63
2023/09/21 11:50:25;;;;;;;0.00;0.00;;;;;;;;;;4931567;29;19914;-63
2023/09/21 11:52:54;;;;;;;0.00;0.00;;;;;;;;;;4930050;29;20110;-63
2023/09/21 11:55:20;;;;;;;0.00;0.00;;;;;;;;;;4946774;28;20176;-63
2023/09/21 11:57:46;;;;;;;0.00;0.00;;;;;;;;;;4931642;29;20120;-64
2023/09/21 12:00:17;;;;;;;0.00;0.00;;;;;;;;;;4963183;28;20114;-65
2023/09/21 12:02:44;;;;;;;0.00;0.00;;;;;;;;;;4931359;29;20322;-65
2023/09/21 12:05:11;;;;;;;0.00;0.00;;;;;;;;;;4934662;29;20512;-66
2023/09/21 12:07:36;;;;;;;0.00;0.00;;;;;;;;;;4928003;29;20044;-65
2023/09/21 12:10:01;;;;;;;0.00;0.00;;;;;;;;;;4928729;29;20032;-64
2023/09/21 12:12:26;;;;;;;0.00;0.00;;;;;;;;;;4945461;28;20027;-64
2023/09/21 12:14:52;;;;;;;0.00;0.00;;;;;;;;;;4930009;29;20046;-63
2023/09/21 12:17:19;;;;;;;0.00;0.00;;;;;;;;;;4929674;29;20041;-63
2023/09/21 12:19:45;;;;;;;0.00;0.00;;;;;;;;;;4929500;29;20055;-64
2023/09/21 12:22:11;;;;;;;0.00;0.00;;;;;;;;;;4930595;29;20102;-62
2023/09/21 12:24:37;;;;;;;0.00;0.00;;;;;;;;;;4960908;28;20504;-64
2023/09/21 12:27:06;;;;;;;0.00;0.00;;;;;;;;;;4929493;29;20040;-64
2023/09/21 12:29:33;;;;;;;0.00;0.00;;;;;;;;;;4930035;29;20078;-69
2023/09/21 12:31:59;;;;;;;0.00;0.00;;;;;;;;;;4930310;29;20489;-64
2023/09/21 12:34:24;;;;;;;0.00;0.00;;;;;;;;;;4929488;29;20126;-63
2023/09/21 12:36:50;;;;;;;0.00;0.00;;;;;;;;;;4949045;28;20090;-63
2023/09/21 12:39:15;;;;;;;0.00;0.00;;;;;;;;;;4922317;28;20087;-63
2023/09/21 12:41:43;;;;;;;0.00;0.00;;;;;;;;;;4926638;28;20040;-63
2023/09/21 12:44:10;;;;;;;0.00;0.00;;;;;;;;;;4963450;28;20032;-66
2023/09/21 12:46:37;;;;;;;0.00;0.00;;;;;;;;;;4928830;29;20040;-65
2023/09/21 12:49:02;;;;;;;0.00;0.00;;;;;;;;;;4927639;29;20027;-65
2023/09/21 12:51:28;;;;;;;0.00;0.00;;;;;;;;;;4931543;29;20074;-65
2023/09/21 12:53:53;;;;;;;0.00;0.00;;;;;;;;;;4931469;28;20040;-64
2023/09/21 12:56:18;;;;;;;0.00;0.00;;;;;;;;;;4930446;29;20090;-62
2023/09/21 12:58:44;;;;;;;0.00;0.00;;;;;;;;;;4945139;28;20027;-63
2023/09/21 13:01:09;;;;;;;0.00;0.00;;;;;;;;;;4929330;29;20055;-62
2023/09/21 13:03:35;;;;;;;0.00;0.00;;;;;;;;;;4929053;29;20030;-63
2023/09/21 13:06:02;;;;;;;0.00;0.00;;;;;;;;;;4928658;29;20106;-63
2023/09/21 13:08:28;;;;;;;0.00;0.00;;;;;;;;;;4929519;29;20035;-64
2023/09/21 13:10:54;;;;;;;0.00;0.00;;;;;;;;;;4929453;29;20043;-64
2023/09/21 13:13:19;;;;;;;0.00;0.00;;;;;;;;;;4929735;29;20044;-63
2023/09/21 13:15:44;;;;;;;;;;;;;;;;;;4928932;29;20483;-64
2023/09/21 13:18:10;;;;;;;0.00;0.00;;;;;;;;;;4929510;29;19910;-62
2023/09/21 13:20:35;;;;;;;;;;;;;;;;;;4928743;29;20274;-63
2023/09/21 13:23:01;;;;;;;0.00;0.00;;;;;;;;;;4929777;29;19918;-64
2023/09/21 13:25:27;;;;;;;;;;;;;;;;;;4919767;29;20058;-63
2023/09/21 13:27:53;;;;;;;0.00;0.00;;;;;;;;;;4929001;28;19914;-64
2023/09/21 13:30:18;;;;;;;0.00;0.00;;;;;;;;;;4927225;29;20422;-66
2023/09/21 13:32:43;;;;;;;;;;;;;;;;;;4927408;29;20036;-63
2023/09/21 13:35:11;;;;;;;0.00;0.00;;;;;;;;;;4944030;28;20004;-64
2023/09/21 13:37:36;;;;;;;0.00;0.00;;;;;;;;;;4929030;29;20042;-64
2023/09/21 13:40:02;;;;;;;;;;;;;;;;;;4931249;29;20035;-63
2023/09/21 13:42:28;;;;;;;0.00;0.00;;;;;;;;;;4928753;29;19906;-63
2023/09/21 13:44:54;;;;;;;;;;;;;;;;;;4944867;28;20102;-63
2023/09/21 13:47:19;;;;;;;;;;;;;;;;;;4930433;29;20843;-65
2023/09/21 13:49:44;;;;;;;0.00;0.00;;;;;;;;;;4929041;29;20424;-63
2023/09/21 13:52:10;;;;;;;;;;;;;;;;;;4929528;29;20027;-63
2023/09/21 13:54:36;;;;;;;0.00;0.00;;;;;;;;;;4957336;28;19922;-63
2023/09/21 13:57:02;;;;;;;0.00;0.00;;;;;;;;;;4928116;28;20548;-63
2023/09/21 13:59:28;;;;;;;0.00;0.00;;;;;;;;;;4928873;29;20111;-63
2023/09/21 14:01:53;;;;;;;0.00;0.00;;;;;;;;;;4930161;29;20122;-64
2023/09/21 14:04:18;;;;;;;0.00;0.00;;;;;;;;;;4944849;29;20549;-63
2023/09/21 14:06:44;;;;;;;;;;;;;;;;;;4930077;29;20054;-64
2023/09/21 14:09:09;;;;;;;;;;;;;;;;;;4930608;29;19907;-63
2023/09/21 14:11:35;;;;;;;0.00;0.00;;;;;;;;;;4932048;29;19949;-64
2023/09/21 14:14:00;;;;;;;0.00;0.00;;;;;;;;;;4946796;28;20074;-64
2023/09/21 14:16:26;;;;;;;0.00;0.00;;;;;;;;;;4927859;29;20624;-65
2023/09/21 14:18:52;;;;;;;0.00;0.00;;;;;;;;;;4928799;29;20035;-66
2023/09/21 14:21:17;;;;;;;0.00;0.00;;;;;;;;;;4926514;29;20038;-64
2023/09/21 14:23:42;;;;;;;0.00;0.00;;;;;;;;;;4929605;29;20460;-64
2023/09/21 14:26:08;;;;;;;0.00;0.00;;;;;;;;;;4943894;29;20036;-65
2023/09/21 14:28:36;;;;;;;0.00;0.00;;;;;;;;;;4960172;28;20028;-64
2023/09/21 14:31:01;;;;;;;0.00;0.00;;;;;;;;;;4930386;29;20028;-63
2023/09/21 14:33:27;;;;;;;0.00;0.00;;;;;;;;;;4929133;29;20062;-64
2023/09/21 14:35:52;;;;;;;0.00;0.00;;;;;;;;;;4958195;28;20114;-65
2023/09/21 14:38:18;;;;;;;0.00;0.00;;;;;;;;;;4926982;29;20063;-65
2023/09/21 14:40:43;;;;;;;0.00;0.00;;;;;;;;;;4926251;29;20063;-64
2023/09/21 14:43:09;;;;;;;0.00;0.00;;;;;;;;;;4928980;28;20460;-64
2023/09/21 14:45:35;;;;;;;0.00;0.00;;;;;;;;;;4927842;29;20028;-63